createdAt,value
2018-02-15T00:02:10.473Z,8.47
2018-02-15T00:04:37.858Z,7.50
2018-02-15T00:07:05.272Z,7.83
2018-02-15T00:09:32.623Z,7.87
2018-02-15T00:12:00.018Z,8.00
2018-02-15T00:14:27.383Z,7.60
2018-02-15T00:16:54.799Z,7.70
2018-02-15T00:19:22.160Z,7.67
2018-02-15T00:21:49.559Z,7.53
2018-02-15T00:24:16.915Z,7.60
2018-02-15T00:26:44.314Z,7.47
2018-02-15T00:29:11.723Z,8.07
2018-02-15T00:31:39.143Z,7.37
2018-02-15T00:34:06.529Z,7.27
2018-02-15T00:36:33.935Z,7.20
2018-02-15T00:39:01.362Z,7.83
2018-02-15T00:41:28.748Z,7.30
2018-02-15T00:43:56.104Z,7.57
2018-02-15T00:46:23.513Z,7.63
2018-02-15T00:48:50.869Z,7.70
2018-02-15T00:51:18.253Z,7.70
2018-02-15T00:53:45.738Z,7.13
2018-02-15T00:56:13.117Z,7.30
2018-02-15T00:58:40.483Z,7.20
2018-02-15T01:01:07.850Z,7.67
2018-02-15T01:03:35.199Z,7.40
2018-02-15T01:06:02.552Z,6.83
2018-02-15T01:08:29.946Z,6.83
2018-02-15T01:10:57.335Z,7.07
2018-02-15T01:13:24.737Z,6.97
2018-02-15T01:15:52.101Z,6.87
2018-02-15T01:18:19.524Z,7.00
2018-02-15T01:20:46.891Z,7.53
2018-02-15T01:23:14.279Z,6.50
2018-02-15T01:25:41.639Z,7.00
2018-02-15T01:28:09.072Z,6.77
2018-02-15T01:30:36.444Z,6.87
2018-02-15T01:33:03.799Z,7.13
2018-02-15T01:35:31.207Z,6.33
2018-02-15T01:37:58.565Z,7.10
2018-02-15T01:40:25.998Z,6.97
2018-02-15T01:42:53.427Z,6.77
2018-02-15T01:45:20.795Z,6.53
2018-02-15T01:47:48.190Z,7.17
2018-02-15T01:50:15.547Z,7.00
2018-02-15T01:52:42.952Z,6.83
2018-02-15T01:55:10.319Z,7.10
2018-02-15T01:57:37.745Z,6.67
2018-02-15T02:00:05.154Z,6.20
2018-02-15T02:02:32.527Z,7.30
2018-02-15T02:04:59.938Z,6.70
2018-02-15T02:07:27.335Z,6.30
2018-02-15T02:09:54.764Z,6.63
2018-02-15T02:12:22.131Z,6.13
2018-02-15T02:14:49.487Z,6.40
2018-02-15T02:17:16.954Z,5.60
2018-02-15T02:19:44.342Z,6.13
2018-02-15T02:22:11.794Z,6.00
2018-02-15T02:24:39.146Z,5.63
2018-02-15T02:27:06.494Z,6.23
2018-02-15T02:29:33.882Z,5.67
2018-02-15T02:32:01.246Z,5.60
2018-02-15T02:34:28.677Z,5.63
2018-02-15T02:36:56.052Z,5.83
2018-02-15T02:39:23.445Z,5.37
2018-02-15T02:41:50.845Z,5.90
2018-02-15T02:44:18.219Z,5.03
2018-02-15T02:46:45.669Z,5.33
2018-02-15T02:49:13.091Z,5.83
2018-02-15T02:51:40.442Z,5.70
2018-02-15T02:54:07.834Z,5.57
2018-02-15T02:56:35.254Z,5.97
2018-02-15T02:59:02.641Z,6.10
2018-02-15T03:01:29.999Z,6.70
2018-02-15T03:03:57.375Z,6.47
2018-02-15T03:06:24.751Z,6.33
2018-02-15T03:08:52.122Z,6.47
2018-02-15T03:11:19.522Z,6.83
2018-02-15T03:13:46.955Z,6.17
2018-02-15T03:16:14.375Z,5.93
2018-02-15T03:18:41.807Z,6.10
2018-02-15T03:21:09.176Z,6.03
2018-02-15T03:23:36.524Z,6.50
2018-02-15T03:26:03.886Z,5.93
2018-02-15T03:28:31.343Z,5.83
2018-02-15T03:30:58.714Z,5.73
2018-02-15T03:33:26.067Z,5.73
2018-02-15T03:35:53.428Z,5.93
2018-02-15T03:38:20.791Z,5.80
2018-02-15T03:40:48.167Z,6.30
2018-02-15T03:43:15.643Z,6.43
2018-02-15T03:45:43.049Z,6.30
2018-02-15T03:48:10.406Z,6.33
2018-02-15T03:50:37.796Z,5.93
2018-02-15T03:53:05.160Z,6.13
2018-02-15T03:55:32.549Z,6.10
2018-02-15T03:57:59.940Z,5.83
2018-02-15T04:00:27.319Z,6.50
2018-02-15T04:02:54.725Z,6.10
2018-02-15T04:05:22.112Z,5.50
2018-02-15T04:07:49.514Z,5.70
2018-02-15T04:10:16.897Z,5.90
2018-02-15T04:12:44.320Z,6.33
2018-02-15T04:15:11.695Z,6.13
2018-02-15T04:17:39.084Z,6.00
2018-02-15T04:20:06.483Z,6.00
2018-02-15T04:22:33.853Z,5.63
2018-02-15T04:25:01.213Z,5.10
2018-02-15T04:27:28.626Z,5.40
2018-02-15T04:29:56.047Z,6.10
2018-02-15T04:32:23.471Z,25.90
2018-02-15T04:34:50.924Z,6.57
2018-02-15T04:37:18.298Z,6.10
2018-02-15T04:39:45.755Z,45.63
2018-02-15T04:42:13.240Z,20.40
2018-02-15T04:44:40.618Z,15.00
2018-02-15T04:47:07.976Z,12.30
2018-02-15T04:49:35.367Z,7.63
2018-02-15T04:52:02.715Z,9.47
2018-02-15T04:54:30.083Z,9.73
2018-02-15T04:56:57.476Z,8.17
2018-02-15T04:59:24.876Z,7.30
2018-02-15T05:01:52.286Z,7.23
2018-02-15T05:04:19.643Z,8.90
2018-02-15T05:06:47.007Z,7.77
2018-02-15T05:09:14.510Z,9.00
2018-02-15T05:11:41.924Z,10.70
2018-02-15T05:14:09.423Z,8.53
2018-02-15T05:16:36.776Z,8.20
2018-02-15T05:19:04.134Z,11.20
2018-02-15T05:21:31.489Z,8.23
2018-02-15T05:23:58.867Z,8.87
2018-02-15T05:26:26.298Z,9.87
2018-02-15T05:28:53.704Z,9.40
2018-02-15T05:31:21.062Z,11.13
2018-02-15T05:33:48.443Z,9.50
2018-02-15T05:36:16.046Z,9.37
2018-02-15T05:38:43.442Z,8.30
2018-02-15T05:41:10.913Z,9.07
2018-02-15T05:43:38.347Z,12.83
2018-02-15T05:46:05.703Z,12.27
2018-02-15T05:48:33.100Z,16.33
2018-02-15T05:51:00.467Z,15.57
2018-02-15T05:53:27.893Z,19.37
2018-02-15T05:55:55.260Z,16.20
2018-02-15T05:58:22.632Z,14.43
2018-02-15T06:00:50.112Z,19.13
2018-02-15T06:03:17.473Z,24.23
2018-02-15T06:05:44.927Z,24.73
2018-02-15T06:08:12.311Z,20.67
2018-02-15T06:10:39.776Z,20.07
2018-02-15T06:13:07.190Z,21.10
2018-02-15T06:15:34.624Z,21.93
2018-02-15T06:18:02.002Z,22.20
2018-02-15T06:20:29.359Z,28.95
2018-02-15T06:22:56.790Z,28.77
2018-02-15T06:25:24.193Z,19.83
2018-02-15T06:27:51.616Z,19.23
2018-02-15T06:30:19.028Z,26.07
2018-02-15T06:32:46.504Z,24.70
2018-02-15T06:35:13.895Z,19.53
2018-02-15T06:37:41.271Z,17.10
2018-02-15T06:40:08.668Z,18.07
2018-02-15T06:42:36.044Z,20.23
2018-02-15T06:45:03.401Z,21.23
2018-02-15T06:47:30.783Z,20.70
2018-02-15T06:49:58.199Z,14.37
2018-02-15T06:52:25.663Z,15.70
2018-02-15T06:54:53.163Z,18.93
2018-02-15T06:57:20.660Z,13.10
2018-02-15T06:59:48.095Z,16.37
2018-02-15T07:02:15.492Z,14.50
2018-02-15T07:04:42.950Z,10.50
2018-02-15T07:07:10.360Z,13.30
2018-02-15T07:09:37.904Z,11.60
2018-02-15T07:12:05.269Z,14.93
2018-02-15T09:03:05.988Z,12.87
2018-02-15T09:05:33.415Z,11.93
2018-02-15T09:08:00.785Z,10.00
2018-02-15T09:10:28.188Z,9.90
2018-02-15T09:12:55.604Z,12.87
2018-02-15T09:15:22.976Z,10.70
2018-02-15T09:17:50.412Z,10.40
2018-02-15T09:23:15.154Z,11.53
2018-02-15T09:25:42.521Z,12.83
2018-02-15T09:28:09.907Z,9.30
2018-02-15T09:30:37.420Z,10.13
2018-02-15T09:33:06.060Z,9.97
2018-02-15T09:35:33.550Z,12.23
2018-02-15T09:38:01.042Z,10.47
2018-02-15T09:40:28.544Z,8.47
2018-02-15T09:42:55.995Z,14.23
2018-02-15T09:45:23.468Z,10.87
2018-02-15T09:47:50.993Z,16.13
2018-02-15T09:50:18.468Z,11.13
2018-02-15T09:52:45.969Z,10.00
2018-02-15T09:55:13.385Z,8.77
2018-02-15T09:57:40.841Z,10.93
2018-02-15T10:00:08.550Z,9.03
2018-02-15T10:02:36.261Z,12.90
2018-02-15T10:05:03.717Z,8.17
2018-02-15T10:07:31.149Z,7.27
2018-02-15T10:09:58.531Z,10.20
2018-02-15T10:12:25.924Z,7.50
2018-02-15T10:14:53.309Z,9.17
2018-02-15T10:17:20.787Z,9.23
2018-02-15T10:19:48.325Z,9.77
2018-02-15T10:22:15.839Z,7.37
2018-02-15T10:24:43.312Z,8.67
2018-02-15T10:27:10.752Z,7.20
2018-02-15T10:29:38.171Z,7.03
2018-02-15T10:32:05.559Z,10.97
2018-02-15T10:34:32.964Z,9.70
2018-02-15T10:37:00.426Z,7.77
2018-02-15T10:39:27.867Z,8.53
2018-02-15T10:41:55.269Z,7.23
2018-02-15T10:44:22.766Z,6.93
2018-02-15T10:46:50.224Z,6.43
2018-02-15T10:49:17.643Z,8.23
2018-02-15T10:51:45.084Z,8.83
2018-02-15T10:54:12.498Z,8.27
2018-02-15T10:56:39.995Z,10.93
2018-02-15T10:59:07.468Z,6.17
2018-02-15T11:01:35.020Z,7.37
2018-02-15T11:04:02.597Z,9.30
2018-02-15T11:06:29.988Z,8.30
2018-02-15T11:08:57.508Z,7.43
2018-02-15T11:11:25.249Z,13.63
2018-02-15T11:13:52.677Z,9.27
2018-02-15T11:16:21.223Z,8.43
2018-02-15T11:18:48.745Z,6.27
2018-02-15T11:21:17.122Z,9.47
2018-02-15T11:23:44.762Z,7.10
2018-02-15T11:26:12.260Z,6.77
2018-02-15T11:28:49.671Z,9.10
2018-02-15T11:31:17.042Z,6.20
2018-02-15T13:34:54.812Z,12.17
2018-02-15T13:37:22.438Z,8.77
2018-02-15T13:39:50.381Z,12.43
2018-02-15T13:42:18.730Z,9.03
2018-02-15T13:44:47.401Z,7.80
2018-02-15T13:47:15.263Z,8.67
2018-02-15T13:49:43.973Z,9.43
2018-02-15T13:52:11.972Z,8.23
2018-02-15T13:54:39.677Z,8.57
2018-02-15T13:57:07.394Z,11.83
2018-02-15T13:59:34.861Z,8.37
2018-02-15T14:02:02.664Z,7.83
2018-02-15T14:04:30.444Z,10.17
2018-02-15T14:06:58.615Z,7.77
2018-02-15T14:09:26.641Z,9.43
2018-02-15T14:11:54.409Z,11.03
2018-02-15T14:14:22.658Z,8.17
2018-02-15T14:16:54.464Z,10.43
2018-02-15T14:19:23.465Z,8.00
2018-02-15T14:21:51.967Z,13.60
2018-02-15T14:24:20.909Z,8.53
2018-02-15T14:26:49.072Z,9.03
2018-02-15T14:29:17.053Z,10.00
2018-02-15T14:31:44.910Z,7.00
2018-02-15T14:34:12.674Z,11.27
2018-02-15T14:36:40.097Z,7.03
2018-02-15T14:39:07.944Z,9.60
2018-02-15T14:41:35.921Z,10.10
2018-02-15T14:44:03.357Z,9.43
2018-02-15T14:46:30.869Z,7.20
2018-02-15T14:48:58.424Z,13.27
2018-02-15T14:51:26.212Z,7.30
2018-02-15T14:53:53.877Z,7.93
2018-02-15T14:56:21.434Z,8.07
2018-02-15T14:58:49.123Z,6.90
2018-02-15T15:01:16.613Z,7.23
2018-02-15T15:03:44.929Z,8.40
2018-02-15T15:06:12.416Z,9.77
2018-02-15T15:08:40.054Z,10.00
2018-02-15T15:11:07.791Z,8.10
2018-02-15T15:13:35.399Z,8.33
2018-02-15T15:16:03.140Z,10.20
2018-02-15T15:18:30.850Z,7.97
2018-02-15T15:20:58.283Z,7.20
2018-02-15T15:23:25.841Z,9.80
2018-02-15T15:25:53.307Z,9.73
2018-02-15T15:31:02.057Z,13.87
2018-02-15T15:33:29.783Z,9.10
2018-02-15T15:35:57.180Z,9.10
2018-02-15T15:38:24.647Z,8.53
2018-02-15T15:40:52.058Z,8.77
2018-02-15T15:43:19.620Z,13.27
2018-02-15T15:45:47.007Z,8.20
2018-02-15T15:48:14.492Z,12.77
2018-02-15T15:50:41.912Z,11.47
2018-02-15T15:53:09.390Z,11.17
2018-02-15T15:55:36.814Z,8.40
2018-02-15T15:58:04.207Z,10.70
2018-02-15T16:00:31.601Z,9.27
2018-02-15T16:02:59.069Z,7.00
2018-02-15T16:05:26.490Z,8.07
2018-02-15T16:07:53.889Z,10.90
2018-02-15T16:10:21.346Z,7.10
2018-02-15T16:12:48.779Z,10.47
2018-02-15T16:15:16.226Z,10.20
2018-02-15T16:17:43.659Z,9.37
2018-02-15T16:20:11.195Z,9.23
2018-02-15T16:22:38.574Z,12.73
2018-02-15T16:25:05.947Z,10.73
2018-02-15T16:27:33.338Z,12.37
2018-02-15T16:30:00.759Z,9.00
2018-02-15T16:32:28.149Z,12.43
2018-02-15T16:34:55.551Z,11.17
2018-02-15T16:37:22.974Z,13.03
2018-02-15T16:39:50.390Z,8.53
2018-02-15T16:42:17.798Z,10.50
2018-02-15T16:44:45.171Z,9.80
2018-02-15T16:47:12.578Z,6.97
2018-02-15T16:49:39.967Z,8.70
2018-02-15T16:52:07.418Z,10.83
2018-02-15T16:54:35.105Z,12.67
2018-02-15T16:57:02.467Z,12.73
2018-02-15T16:59:29.836Z,7.47
2018-02-15T17:01:57.221Z,6.97
2018-02-15T17:04:24.623Z,9.63
2018-02-15T17:06:52.032Z,7.97
2018-02-15T17:09:19.422Z,11.13
2018-02-15T17:11:46.822Z,8.30
2018-02-15T17:14:14.209Z,8.63
2018-02-15T17:16:41.676Z,10.67
2018-02-15T17:19:09.069Z,7.57
2018-02-15T17:21:36.452Z,10.03
2018-02-15T17:24:03.819Z,7.37
2018-02-15T17:26:31.175Z,8.40
2018-02-15T17:28:58.537Z,7.33
2018-02-15T17:31:25.957Z,7.63
2018-02-15T17:33:53.310Z,8.60
2018-02-15T17:36:20.672Z,7.67
2018-02-15T17:38:48.075Z,7.83
2018-02-15T17:41:15.506Z,7.40
2018-02-15T17:43:42.864Z,8.17
2018-02-15T17:46:10.216Z,9.93
2018-02-15T17:51:10.930Z,7.80
2018-02-15T17:53:38.308Z,8.60
2018-02-15T17:56:05.701Z,8.00
2018-02-15T17:58:33.095Z,7.53
2018-02-15T18:01:00.451Z,7.63
2018-02-15T18:03:27.850Z,8.37
2018-02-15T18:05:55.229Z,7.73
2018-02-15T18:08:22.583Z,7.67
2018-02-15T18:10:49.982Z,7.43
2018-02-15T18:13:17.339Z,7.40
2018-02-15T18:15:44.699Z,8.60
2018-02-15T18:18:12.085Z,7.40
2018-02-15T18:20:39.487Z,7.40
2018-02-15T18:23:06.874Z,7.07
2018-02-15T18:25:34.279Z,8.33
2018-02-15T18:28:01.684Z,6.63
2018-02-15T18:30:29.086Z,7.90
2018-02-15T18:32:56.470Z,7.00
2018-02-15T18:35:23.833Z,7.40
2018-02-15T18:37:51.199Z,7.47
2018-02-15T18:40:18.554Z,7.33
2018-02-15T18:42:45.903Z,7.20
2018-02-15T18:45:13.254Z,7.73
2018-02-15T18:47:40.658Z,7.50
2018-02-15T18:50:08.027Z,7.83
2018-02-15T18:52:35.388Z,8.23
2018-02-15T18:55:02.856Z,8.77
2018-02-15T18:57:30.277Z,7.33
2018-02-15T18:59:57.622Z,7.90
2018-02-15T19:02:25.043Z,7.93
2018-02-15T19:04:52.412Z,9.77
2018-02-15T19:07:19.778Z,8.70
2018-02-15T19:09:47.133Z,9.47
2018-02-15T19:12:14.597Z,8.67
2018-02-15T19:14:42.009Z,8.53
2018-02-15T19:17:09.390Z,8.67
2018-02-15T19:19:36.769Z,8.80
2018-02-15T19:22:04.184Z,9.20
2018-02-15T19:24:31.551Z,9.00
2018-02-15T19:26:58.912Z,9.77
2018-02-15T19:29:26.308Z,9.60
2018-02-15T19:31:53.684Z,9.20
2018-02-15T19:34:21.101Z,9.63
2018-02-15T19:36:48.458Z,9.77
2018-02-15T19:39:15.833Z,10.23
2018-02-15T19:41:43.172Z,9.87
2018-02-15T19:44:10.522Z,10.00
2018-02-15T19:46:37.928Z,9.50
2018-02-15T19:49:05.287Z,9.87
2018-02-15T19:51:32.683Z,10.20
2018-02-15T19:54:00.053Z,9.60
2018-02-15T19:56:27.457Z,10.07
2018-02-15T19:58:54.812Z,9.63
2018-02-15T20:01:22.226Z,9.63
2018-02-15T20:03:49.582Z,10.17
2018-02-15T20:06:16.985Z,10.03
2018-02-15T20:08:44.344Z,10.27
2018-02-15T20:11:11.743Z,10.83
2018-02-15T20:13:39.143Z,9.60
2018-02-15T20:16:06.611Z,10.10
2018-02-15T20:18:33.963Z,10.07
2018-02-15T20:21:01.364Z,9.97
2018-02-15T20:23:28.775Z,10.00
2018-02-15T20:25:56.130Z,10.27
2018-02-15T20:28:23.485Z,10.17
2018-02-15T20:30:50.857Z,10.30
2018-02-15T20:33:18.225Z,10.03
2018-02-15T20:35:45.707Z,9.73
2018-02-15T20:38:13.063Z,9.80
2018-02-15T20:40:40.454Z,9.97
2018-02-15T20:43:07.812Z,9.90
2018-02-15T20:45:35.179Z,10.03
2018-02-15T20:48:02.539Z,9.60
2018-02-15T20:50:29.913Z,10.00
2018-02-15T20:52:57.327Z,9.53
2018-02-15T20:55:24.687Z,9.97
2018-02-15T20:57:52.126Z,10.27
2018-02-15T21:00:19.541Z,10.00
2018-02-15T21:02:46.925Z,9.90
2018-02-15T21:05:14.385Z,9.20
2018-02-15T21:07:41.727Z,9.10
2018-02-15T21:10:09.112Z,10.13
2018-02-15T21:12:36.475Z,9.87
2018-02-15T21:15:03.868Z,9.73
2018-02-15T21:17:31.223Z,9.83
2018-02-15T21:19:58.622Z,9.40
2018-02-15T21:22:25.975Z,9.67
2018-02-15T21:24:53.376Z,9.80
2018-02-15T21:27:20.776Z,9.73
2018-02-15T21:29:48.126Z,9.80
2018-02-15T21:32:15.552Z,9.77
2018-02-15T21:34:43.006Z,9.47
2018-02-15T21:37:10.352Z,10.10
2018-02-15T21:39:37.711Z,9.60
2018-02-15T21:42:05.111Z,10.13
2018-02-15T21:44:32.567Z,9.70
2018-02-15T21:46:59.929Z,9.67
2018-02-15T21:49:27.335Z,9.93
2018-02-15T21:51:54.707Z,9.13
2018-02-15T21:54:22.108Z,9.50
2018-02-15T21:56:49.524Z,9.43
2018-02-15T21:59:16.962Z,9.27
2018-02-15T22:01:44.392Z,9.13
2018-02-15T22:04:11.804Z,9.43
2018-02-15T22:06:39.196Z,8.83
2018-02-15T22:09:06.548Z,9.10
2018-02-15T22:11:34.043Z,8.87
2018-02-15T22:14:01.429Z,8.90
2018-02-15T22:16:28.795Z,9.23
2018-02-15T22:18:56.189Z,9.20
2018-02-15T22:21:23.656Z,8.93
2018-02-15T22:23:51.102Z,9.90
2018-02-15T22:26:18.453Z,8.60
2018-02-15T22:28:45.858Z,9.47
2018-02-15T22:31:13.241Z,9.73
2018-02-15T22:33:40.648Z,9.30
2018-02-15T22:36:08.043Z,8.73
2018-02-15T22:38:35.401Z,9.33
2018-02-15T22:41:02.806Z,9.10
2018-02-15T22:43:30.179Z,9.30
2018-02-15T22:45:57.541Z,9.17
2018-02-15T22:48:24.954Z,8.87
2018-02-15T22:50:52.502Z,9.40
2018-02-15T22:53:19.983Z,9.10
2018-02-15T22:55:47.354Z,9.20
2018-02-15T22:58:14.728Z,10.00
2018-02-15T23:00:42.084Z,9.00
2018-02-15T23:03:09.535Z,8.97
2018-02-15T23:05:36.908Z,8.97
2018-02-15T23:08:04.385Z,9.10
2018-02-15T23:10:31.747Z,8.43
2018-02-15T23:12:59.108Z,9.10
2018-02-15T23:15:26.506Z,9.07
2018-02-15T23:17:53.868Z,8.50
2018-02-15T23:20:21.395Z,8.57
2018-02-15T23:22:48.754Z,8.80
2018-02-15T23:25:16.121Z,8.70
2018-02-15T23:27:43.551Z,8.77
2018-02-15T23:30:10.913Z,8.03
2018-02-15T23:32:38.291Z,8.70
2018-02-15T23:35:05.724Z,7.70
2018-02-15T23:37:33.091Z,8.67
2018-02-15T23:40:00.452Z,9.07
2018-02-15T23:42:27.848Z,8.80
2018-02-15T23:44:55.339Z,8.43
2018-02-15T23:47:22.853Z,8.43
2018-02-15T23:49:50.237Z,8.47
2018-02-15T23:52:17.665Z,8.77
2018-02-15T23:54:45.109Z,8.60
2018-02-15T23:57:12.510Z,8.77
2018-02-15T23:59:39.904Z,8.57
